Time;durP1;ratioP1;P1;durP2;ratioP2;P2;SDS_P1;SDS_P2;PMS_P1;PMS_P2;Temp;Humidity;BMP_temperature;BMP_pressure;BME280_temperature;BME280_humidity;BME280_pressure;Samples;Min_cycle;Max_cycle;Signal;HPM_P1;HPM_P2
2023/05/31 00:01:01;;;;;;;3.63;3.13;;;18.00;63.50;;;;;;10382619;28;20225;-85
2023/05/31 00:06:07;;;;;;;3.13;2.93;;;17.90;63.20;;;;;;10383207;28;20738;-84
2023/05/31 00:11:10;;;;;;;3.10;2.63;;;17.90;63.50;;;;;;10413260;28;20254;-85
2023/05/31 00:16:13;;;;;;;3.00;2.80;;;18.00;63.70;;;;;;10375533;28;20269;-84
2023/05/31 00:21:16;;;;;;;4.77;3.33;;;18.00;63.50;;;;;;10400908;28;20208;-85
2023/05/31 00:26:18;;;;;;;3.27;3.03;;;18.00;62.60;;;;;;10385976;28;20602;-84
2023/05/31 00:31:23;;;;;;;3.33;3.03;;;17.90;62.90;;;;;;10420674;28;20241;-85
2023/05/31 00:36:25;;;;;;;4.23;2.77;;;17.90;63.50;;;;;;10421411;28;20234;-85
2023/05/31 00:41:30;;;;;;;3.00;2.70;;;17.90;64.20;;;;;;10398862;28;20195;-85
2023/05/31 00:46:37;;;;;;;2.60;2.40;;;17.80;63.60;;;;;;10392221;28;20241;-84
2023/05/31 00:51:40;;;;;;;3.40;3.13;;;17.90;63.70;;;;;;10413180;28;20206;-84
2023/05/31 00:56:42;;;;;;;4.30;3.37;;;17.80;64.60;;;;;;10382608;28;20222;-85
2023/05/31 01:01:46;;;;;;;3.50;3.20;;;17.80;63.90;;;;;;10389573;28;20207;-85
2023/05/31 01:06:51;;;;;;;3.60;3.30;;;17.80;63.50;;;;;;10409942;28;20306;-85
2023/05/31 01:12:09;;;;;;;2.80;2.60;;;17.70;64.20;;;;;;10413794;28;20198;-85
2023/05/31 01:17:30;;;;;;;3.30;3.10;;;17.70;65.80;;;;;;10413984;28;20221;-85
2023/05/31 01:22:49;;;;;;;3.03;2.83;;;17.60;65.60;;;;;;10407627;28;20229;-85
2023/05/31 01:27:53;;;;;;;4.10;3.40;;;17.60;64.50;;;;;;10405694;28;20226;-85
2023/05/31 01:32:58;;;;;;;3.87;3.13;;;17.50;64.10;;;;;;10390996;28;20205;-84
2023/05/31 01:38:00;;;;;;;2.90;2.70;;;17.50;64.10;;;;;;10406703;28;20249;-84
2023/05/31 01:43:07;;;;;;;3.73;3.43;;;17.40;64.20;;;;;;10386804;28;20203;-85
2023/05/31 01:48:18;;;;;;;3.30;3.00;;;17.30;64.30;;;;;;10389875;28;20238;-86
2023/05/31 01:53:20;;;;;;;3.30;3.00;;;17.30;64.70;;;;;;10389298;28;20276;-86
2023/05/31 01:58:27;;;;;;;3.10;2.63;;;17.20;64.20;;;;;;10389622;28;20699;-85
2023/05/31 02:03:31;;;;;;;2.80;2.60;;;17.10;63.80;;;;;;10391605;28;20195;-86
2023/05/31 02:08:34;;;;;;;3.60;3.30;;;17.00;64.50;;;;;;10406690;28;20225;-86
2023/05/31 02:13:49;;;;;;;3.83;3.20;;;17.00;65.70;;;;;;10390286;28;20229;-85
2023/05/31 02:18:51;;;;;;;5.50;3.10;;;17.00;65.10;;;;;;10392264;28;20226;-86
2023/05/31 02:23:57;;;;;;;4.00;2.60;;;16.90;65.10;;;;;;10394225;28;20199;-86
2023/05/31 02:29:00;;;;;;;3.27;3.07;;;16.80;65.10;;;;;;10404461;28;20233;-85
2023/05/31 02:34:03;;;;;;;3.20;3.00;;;16.70;64.80;;;;;;10391430;28;20195;-86
2023/05/31 02:39:05;;;;;;;3.07;2.77;;;16.60;66.50;;;;;;10392856;28;20272;-85
2023/05/31 02:44:11;;;;;;;3.17;2.97;;;16.60;65.00;;;;;;10415904;28;20233;-85
2023/05/31 02:49:14;;;;;;;3.10;2.90;;;16.50;65.40;;;;;;10390935;28;20218;-86
2023/05/31 02:54:17;;;;;;;4.60;3.60;;;16.50;66.00;;;;;;10400509;28;20207;-86
2023/05/31 02:59:21;;;;;;;5.57;3.07;;;16.50;65.60;;;;;;10382629;28;20223;-85
2023/05/31 03:04:28;;;;;;;9.03;4.10;;;16.40;65.30;;;;;;10390741;28;20626;-85
2023/05/31 03:09:38;;;;;;;3.33;3.03;;;16.40;65.90;;;;;;10405928;28;20726;-86
2023/05/31 03:14:42;;;;;;;5.83;3.13;;;16.30;66.20;;;;;;10391512;28;20277;-85
2023/05/31 03:19:44;;;;;;;3.27;3.07;;;16.30;66.30;;;;;;10410046;28;20309;-85
2023/05/31 03:24:47;;;;;;;3.20;2.90;;;16.20;66.70;;;;;;10411536;28;20206;-84
2023/05/31 03:29:55;;;;;;;3.73;3.37;;;16.20;66.30;;;;;;10475395;23;20263;-83
2023/05/31 03:34:58;;;;;;;4.70;2.80;;;16.20;67.90;;;;;;10469131;28;20611;-83
2023/05/31 03:40:00;;;;;;;4.50;3.00;;;16.20;66.90;;;;;;10427726;28;20637;-83
2023/05/31 03:45:09;;;;;;;3.40;3.10;;;16.10;66.90;;;;;;10443158;28;20210;-82
2023/05/31 03:50:11;;;;;;;3.30;3.00;;;16.10;66.80;;;;;;10425791;28;20232;-83
2023/05/31 03:55:14;;;;;;;2.87;2.53;;;16.10;67.00;;;;;;10442671;28;20225;-83
2023/05/31 04:00:18;;;;;;;3.40;3.10;;;16.10;68.40;;;;;;10442942;28;20227;-83
2023/05/31 04:05:27;;;;;;;4.80;2.70;;;16.10;68.90;;;;;;10442964;28;20665;-83
2023/05/31 04:10:29;;;;;;;2.90;2.70;;;16.10;69.10;;;;;;10426593;28;20285;-83
2023/05/31 04:15:32;;;;;;;3.27;2.97;;;16.10;68.30;;;;;;10445654;28;20228;-83
2023/05/31 04:20:38;;;;;;;4.10;3.20;;;16.10;68.50;;;;;;10424109;28;20693;-84
2023/05/31 04:25:40;;;;;;;2.83;2.57;;;16.10;69.10;;;;;;10428880;28;20222;-83
2023/05/31 04:30:45;;;;;;;3.43;3.13;;;16.10;68.90;;;;;;10446463;28;20616;-84
2023/05/31 04:35:48;;;;;;;2.80;2.60;;;16.10;70.10;;;;;;10446004;28;20213;-83
2023/05/31 04:40:50;;;;;;;5.93;3.10;;;16.20;70.20;;;;;;10436721;28;20650;-82
2023/05/31 04:45:54;;;;;;;2.93;2.67;;;16.20;70.20;;;;;;10442158;28;20682;-82
2023/05/31 04:50:56;;;;;;;4.10;3.00;;;16.20;70.60;;;;;;10424341;28;20198;-81
2023/05/31 04:56:04;;;;;;;6.53;5.93;;;16.20;70.50;;;;;;10437233;28;20217;-82
2023/05/31 05:01:08;;;;;;;4.03;3.30;;;16.20;72.10;;;;;;10436771;28;20259;-81
2023/05/31 05:06:23;;;;;;;4.40;2.73;;;16.20;71.40;;;;;;10414514;28;20218;-82
2023/05/31 05:11:25;;;;;;;3.30;3.00;;;16.30;71.80;;;;;;10430392;28;20201;-82
2023/05/31 05:16:29;;;;;;;3.33;2.50;;;16.30;72.60;;;;;;10415236;28;20226;-83
2023/05/31 05:21:32;;;;;;;4.63;3.00;;;16.40;72.40;;;;;;10401805;28;20701;-82
2023/05/31 05:26:35;;;;;;;3.07;2.80;;;16.50;71.50;;;;;;10428703;28;20230;-81
2023/05/31 05:31:38;;;;;;;3.90;2.70;;;16.50;71.50;;;;;;10420566;28;20202;-82
2023/05/31 05:36:42;;;;;;;4.33;2.90;;;16.60;69.70;;;;;;10436602;28;20237;-81
2023/05/31 05:41:44;;;;;;;5.30;3.20;;;16.70;66.70;;;;;;10445161;28;20225;-83
2023/05/31 05:46:48;;;;;;;4.67;3.03;;;16.80;69.50;;;;;;10444804;28;20309;-83
2023/05/31 05:51:50;;;;;;;4.13;3.00;;;16.90;70.00;;;;;;10441903;28;20202;-83
2023/05/31 05:56:53;;;;;;;3.37;2.77;;;17.00;68.80;;;;;;10428640;28;20249;-83
2023/05/31 06:01:56;;;;;;;4.30;3.30;;;17.20;67.20;;;;;;10445607;28;20328;-83
2023/05/31 06:07:00;;;;;;;3.57;2.60;;;17.30;64.30;;;;;;10429363;28;20268;-82
2023/05/31 06:12:02;;;;;;;5.30;3.30;;;17.40;65.90;;;;;;10429688;28;20226;-83
2023/05/31 06:17:10;;;;;;;2.90;2.70;;;17.50;63.80;;;;;;10419199;28;20222;-82
2023/05/31 06:22:12;;;;;;;4.07;3.00;;;17.60;65.10;;;;;;10463914;28;20296;-82
2023/05/31 06:27:15;;;;;;;2.80;2.60;;;17.70;63.90;;;;;;10430432;28;20632;-82
2023/05/31 06:32:21;;;;;;;4.27;3.57;;;17.90;64.60;;;;;;10446589;28;20193;-83
2023/05/31 06:37:24;;;;;;;3.47;2.80;;;18.10;62.80;;;;;;10457891;28;20628;-82
2023/05/31 06:42:27;;;;;;;3.57;3.27;;;18.40;62.80;;;;;;10446309;28;20677;-81
2023/05/31 06:47:31;;;;;;;3.97;2.90;;;18.70;61.80;;;;;;10466235;28;20222;-83
2023/05/31 06:53:12;;;;;;;4.17;3.20;;;19.10;60.20;;;;;;10447526;28;20233;-83
2023/05/31 06:58:30;;;;;;;4.03;2.70;;;19.40;60.90;;;;;;10448268;28;20750;-83
2023/05/31 07:03:33;;;;;;;5.27;3.63;;;19.80;61.10;;;;;;10431363;28;20197;-83
2023/05/31 07:08:38;;;;;;;3.90;3.00;;;20.10;60.90;;;;;;10449908;28;20220;-84
2023/05/31 07:14:01;;;;;;;3.30;3.00;;;20.40;60.80;;;;;;10435544;28;20213;-84
2023/05/31 07:19:05;;;;;;;3.57;3.27;;;20.80;59.60;;;;;;10446186;28;20230;-83
2023/05/31 07:24:09;;;;;;;5.40;3.10;;;21.20;58.90;;;;;;10449975;28;20236;-84
2023/05/31 07:29:11;;;;;;;4.63;3.20;;;21.50;58.80;;;;;;10435211;28;20221;-84
2023/05/31 07:34:15;;;;;;;3.80;3.00;;;22.00;57.10;;;;;;10449965;28;20587;-84
2023/05/31 07:39:18;;;;;;;5.80;3.10;;;22.40;58.20;;;;;;10434554;28;20257;-84
2023/05/31 07:44:21;;;;;;;5.53;3.17;;;22.90;57.90;;;;;;10467587;28;20206;-83
2023/05/31 07:49:25;;;;;;;8.93;3.40;;;23.40;57.00;;;;;;10449097;28;20202;-83
2023/05/31 07:54:27;;;;;;;7.00;2.90;;;23.80;56.00;;;;;;10468325;28;20202;-82
2023/05/31 07:59:29;;;;;;;4.70;3.50;;;24.30;56.30;;;;;;10451235;28;20249;-83
2023/05/31 08:04:33;;;;;;;4.47;3.30;;;24.80;55.10;;;;;;10449215;28;20236;-83
2023/05/31 08:09:35;;;;;;;3.63;3.00;;;25.30;55.30;;;;;;10450028;28;20296;-83
2023/05/31 08:14:37;;;;;;;3.43;2.90;;;25.70;54.40;;;;;;10466454;28;20280;-83
2023/05/31 08:19:40;;;;;;;3.07;2.77;;;26.10;53.00;;;;;;10428836;28;20248;-81
2023/05/31 08:24:42;;;;;;;6.90;2.90;;;26.50;53.30;;;;;;10430813;28;20201;-81
2023/05/31 08:29:45;;;;;;;3.20;2.80;;;26.70;53.30;;;;;;10465731;28;20234;-81
2023/05/31 08:34:48;;;;;;;3.13;2.87;;;27.00;51.50;;;;;;10448019;28;20628;-81
2023/05/31 08:39:50;;;;;;;3.90;2.93;;;27.30;51.60;;;;;;10465586;28;20696;-81
2023/05/31 08:44:53;;;;;;;3.40;2.97;;;27.50;51.00;;;;;;10446146;28;20209;-82
2023/05/31 08:49:59;;;;;;;9.00;3.33;;;27.50;50.70;;;;;;10445523;28;20218;-81
2023/05/31 08:55:03;;;;;;;5.70;3.57;;;27.30;50.60;;;;;;10445998;28;20227;-81
2023/05/31 09:00:10;;;;;;;4.77;3.00;;;27.50;51.20;;;;;;10462464;28;20222;-81
2023/05/31 09:05:15;;;;;;;3.23;2.93;;;27.80;50.10;;;;;;10445049;28;20221;-81
2023/05/31 09:10:17;;;;;;;4.00;3.70;;;28.10;50.40;;;;;;10451092;28;20726;-82
2023/05/31 09:15:22;;;;;;;3.40;3.00;;;28.40;48.80;;;;;;10454969;28;20226;-81
2023/05/31 09:20:33;;;;;;;3.33;3.03;;;28.60;49.90;;;;;;10452619;28;20241;-81
2023/05/31 09:30:37;;;;;;;4.23;3.83;;;29.20;48.30;;;;;;10330600;28;20224;-81
2023/05/31 09:35:57;;;;;;;5.37;2.83;;;29.50;48.40;;;;;;10341414;28;20204;-80
2023/05/31 09:41:12;;;;;;;4.33;3.30;;;30.10;47.90;;;;;;10300596;28;21071;-80
2023/05/31 09:46:15;;;;;;;3.13;2.80;;;30.90;46.90;;;;;;10301083;28;20227;-80
2023/05/31 09:51:20;;;;;;;3.67;3.30;;;31.50;44.50;;;;;;10301644;28;20196;-80
2023/05/31 09:56:27;;;;;;;2.97;2.70;;;32.10;44.20;;;;;;10287573;28;20231;-80
2023/05/31 10:01:30;;;;;;;8.63;3.70;;;33.00;43.80;;;;;;10285619;28;20227;-79
2023/05/31 10:06:35;;;;;;;11.68;3.50;;;34.20;42.20;;;;;;10298874;28;20220;-79
2023/05/31 10:11:42;;;;;;;6.35;2.75;;;35.30;40.90;;;;;;10299882;28;20608;-79
2023/05/31 10:16:49;;;;;;;2.80;2.53;;;36.20;40.20;;;;;;10271185;28;20224;-81
2023/05/31 10:21:54;;;;;;;3.03;2.73;;;36.50;38.60;;;;;;10303206;28;20216;-81
2023/05/31 10:27:02;;;;;;;4.73;2.93;;;34.90;38.90;;;;;;10287322;28;20245;-81
2023/05/31 10:32:11;;;;;;;4.50;2.83;;;32.80;38.90;;;;;;10287331;28;20211;-80
2023/05/31 10:37:15;;;;;;;3.57;3.27;;;30.90;40.60;;;;;;10301591;28;20228;-81
2023/05/31 10:42:23;;;;;;;3.73;2.77;;;29.50;42.00;;;;;;10313190;28;20216;-81
2023/05/31 10:47:33;;;;;;;2.93;2.73;;;28.20;43.60;;;;;;10287888;28;20215;-80
2023/05/31 10:52:36;;;;;;;3.00;2.80;;;27.40;44.60;;;;;;10285748;28;20200;-80
2023/05/31 10:57:38;;;;;;;4.13;3.07;;;26.80;45.10;;;;;;10301453;28;20221;-81
2023/05/31 11:02:48;;;;;;;3.10;2.90;;;26.30;47.00;;;;;;10282553;28;20231;-80
2023/05/31 11:07:52;;;;;;;2.63;2.43;;;25.90;46.60;;;;;;10282606;28;20223;-80
2023/05/31 11:12:57;;;;;;;8.13;3.40;;;25.50;48.00;;;;;;10298974;28;20291;-80
2023/05/31 11:17:59;;;;;;;4.47;3.33;;;25.30;47.20;;;;;;10310443;28;20238;-80
2023/05/31 11:23:25;;;;;;;6.10;3.50;;;25.00;48.70;;;;;;10298002;28;20216;-80
2023/05/31 11:28:27;;;;;;;3.70;3.10;;;24.80;48.30;;;;;;10282842;28;20239;-81
2023/05/31 11:33:45;;;;;;;3.00;2.80;;;24.70;48.70;;;;;;10351782;23;20249;-81
2023/05/31 11:38:48;;;;;;;3.30;3.00;;;24.60;48.70;;;;;;10445839;28;20222;-80
2023/05/31 11:43:51;;;;;;;3.20;3.00;;;24.50;48.70;;;;;;10430348;28;20227;-80
2023/05/31 11:48:53;;;;;;;4.40;3.30;;;24.40;49.00;;;;;;10404140;28;20583;-82
2023/05/31 11:53:59;;;;;;;3.87;3.07;;;24.30;48.20;;;;;;10460132;28;20230;-82
2023/05/31 11:59:01;;;;;;;3.87;2.90;;;24.30;48.30;;;;;;10405403;28;20214;-81
2023/05/31 12:04:04;;;;;;;4.67;3.03;;;24.20;47.30;;;;;;10410409;28;20222;-81
2023/05/31 12:09:10;;;;;;;3.20;3.00;;;24.10;49.60;;;;;;10443239;28;20214;-82
2023/05/31 12:14:13;;;;;;;3.97;3.60;;;24.00;49.30;;;;;;10387331;28;20233;-81
2023/05/31 12:19:15;;;;;;;2.80;2.00;;;24.00;48.40;;;;;;10414187;28;20213;-81
2023/05/31 12:24:18;;;;;;;4.37;3.00;;;24.10;47.70;;;;;;10403529;28;20375;-82
2023/05/31 12:29:28;;;;;;;3.40;3.10;;;24.00;48.70;;;;;;10437659;28;20240;-82
2023/05/31 12:34:33;;;;;;;3.60;2.90;;;24.10;47.60;;;;;;10429291;28;20214;-82
2023/05/31 12:39:38;;;;;;;2.93;2.63;;;24.10;47.20;;;;;;10402902;28;20314;-80
2023/05/31 12:44:44;;;;;;;3.10;2.90;;;24.10;46.80;;;;;;10424410;28;20194;-82
2023/05/31 12:49:47;;;;;;;3.40;3.13;;;24.10;47.20;;;;;;10447631;28;20260;-82
2023/05/31 12:54:50;;;;;;;2.87;2.67;;;24.10;46.30;;;;;;10409058;28;20229;-82
2023/05/31 12:59:58;;;;;;;3.10;2.80;;;24.20;44.50;;;;;;10445992;28;20267;-81
2023/05/31 13:05:00;;;;;;;3.03;2.83;;;24.20;44.60;;;;;;10436270;28;20569;-81
2023/05/31 13:10:07;;;;;;;2.50;2.30;;;24.20;43.80;;;;;;10407143;28;20222;-81
2023/05/31 13:15:10;;;;;;;2.60;2.40;;;24.30;44.00;;;;;;10365609;28;20203;-82
2023/05/31 13:20:13;;;;;;;5.23;3.00;;;24.30;46.20;;;;;;10422372;28;20223;-81
2023/05/31 13:25:19;;;;;;;2.73;2.53;;;24.20;45.80;;;;;;10445532;28;20190;-82
2023/05/31 13:30:21;;;;;;;6.73;2.13;;;24.30;44.80;;;;;;10410508;28;20222;-83
2023/05/31 13:35:24;;;;;;;4.20;2.50;;;24.30;44.40;;;;;;10447914;28;20201;-82
2023/05/31 13:40:27;;;;;;;2.93;2.57;;;24.30;44.50;;;;;;10407076;28;20223;-81
2023/05/31 13:45:30;;;;;;;3.93;2.77;;;24.30;44.00;;;;;;10446955;28;20234;-82
2023/05/31 13:50:32;;;;;;;2.37;2.17;;;24.30;44.40;;;;;;10416449;28;20218;-82
2023/05/31 13:55:35;;;;;;;4.13;2.80;;;24.30;42.30;;;;;;10413314;28;20257;-82
2023/05/31 14:00:37;;;;;;;3.10;2.33;;;24.30;43.90;;;;;;10468539;28;20218;-82
2023/05/31 14:05:39;;;;;;;3.00;2.80;;;24.30;45.30;;;;;;10467553;28;20780;-82
2023/05/31 14:10:43;;;;;;;5.03;2.63;;;24.30;44.20;;;;;;10393971;28;20200;-81
2023/05/31 14:15:45;;;;;;;3.00;2.70;;;24.30;44.60;;;;;;10408020;28;20209;-82
2023/05/31 14:20:50;;;;;;;3.97;2.63;;;24.30;42.80;;;;;;10450894;28;20218;-82
2023/05/31 14:25:54;;;;;;;2.87;2.67;;;24.30;42.40;;;;;;10451050;28;20760;-82
2023/05/31 14:30:56;;;;;;;5.17;2.60;;;24.30;41.10;;;;;;10436894;28;20202;-81
2023/05/31 14:35:58;;;;;;;3.37;3.07;;;24.30;43.30;;;;;;10466391;28;20661;-82
2023/05/31 14:41:01;;;;;;;3.57;2.73;;;24.30;43.40;;;;;;10410866;28;20227;-82
2023/05/31 14:46:04;;;;;;;3.30;2.87;;;24.30;44.00;;;;;;10416032;28;20321;-82
2023/05/31 14:51:06;;;;;;;2.70;2.50;;;24.30;43.70;;;;;;10424296;28;20276;-82
2023/05/31 14:56:09;;;;;;;2.77;2.57;;;24.30;43.00;;;;;;10463925;28;20281;-81
2023/05/31 15:01:11;;;;;;;2.60;2.40;;;24.30;42.90;;;;;;10448786;28;20253;-82
2023/05/31 15:06:14;;;;;;;2.50;2.40;;;24.30;43.50;;;;;;10420131;28;20223;-82
2023/05/31 15:11:17;;;;;;;2.57;2.20;;;24.30;43.80;;;;;;10432982;28;20213;-82
2023/05/31 15:16:21;;;;;;;3.10;2.50;;;24.30;42.70;;;;;;10459771;28;20232;-82
2023/05/31 15:21:23;;;;;;;2.37;2.17;;;24.30;44.30;;;;;;10424585;28;20235;-83
2023/05/31 15:26:27;;;;;;;2.17;2.07;;;24.20;45.00;;;;;;10399486;28;20582;-85
2023/05/31 15:31:29;;;;;;;3.27;2.27;;;24.20;43.20;;;;;;10458233;28;20749;-84
2023/05/31 15:36:31;;;;;;;3.50;2.77;;;24.10;45.10;;;;;;10434799;28;20275;-84
2023/05/31 15:41:35;;;;;;;2.07;1.97;;;24.00;45.50;;;;;;10398492;28;20231;-83
2023/05/31 15:46:39;;;;;;;3.93;2.90;;;24.00;45.60;;;;;;10418047;28;20225;-84
2023/05/31 15:51:41;;;;;;;3.47;2.77;;;24.00;45.90;;;;;;10426604;28;20198;-83
2023/05/31 15:56:44;;;;;;;6.50;2.80;;;24.00;45.30;;;;;;10440087;28;20218;-84
2023/05/31 16:01:46;;;;;;;2.77;2.57;;;23.90;46.50;;;;;;10396451;28;20559;-85
2023/05/31 16:06:48;;;;;;;5.80;2.83;;;23.90;45.90;;;;;;10405500;28;20269;-87
2023/05/31 16:11:52;;;;;;;4.00;2.60;;;23.80;47.90;;;;;;10389614;28;20194;-84
2023/05/31 16:16:54;;;;;;;3.87;3.20;;;23.80;47.10;;;;;;10422690;28;20221;-84
2023/05/31 16:21:56;;;;;;;3.57;2.67;;;23.80;46.00;;;;;;10426219;28;20219;-83
2023/05/31 16:26:59;;;;;;;3.93;3.30;;;23.90;45.80;;;;;;10425067;28;20222;-83
2023/05/31 16:32:02;;;;;;;2.50;2.30;;;23.90;44.90;;;;;;10425340;28;20233;-83
2023/05/31 16:37:04;;;;;;;2.40;2.20;;;23.90;44.70;;;;;;10397351;28;20219;-83
2023/05/31 16:42:09;;;;;;;3.80;2.20;;;24.00;44.40;;;;;;10426255;28;20218;-84
2023/05/31 16:47:11;;;;;;;3.43;2.70;;;24.10;44.70;;;;;;10418093;28;20222;-84
2023/05/31 16:52:13;;;;;;;2.70;2.40;;;24.00;45.90;;;;;;10408090;28;20917;-83
2023/05/31 16:57:17;;;;;;;3.07;2.70;;;24.00;46.00;;;;;;10430033;28;20286;-84
2023/05/31 17:02:19;;;;;;;5.80;2.40;;;23.90;45.50;;;;;;10436490;28;20229;-84
2023/05/31 17:07:21;;;;;;;3.00;2.80;;;23.90;44.60;;;;;;10403118;28;20234;-85
2023/05/31 17:12:25;;;;;;;4.10;3.70;;;23.90;44.60;;;;;;10406805;28;20234;-84
2023/05/31 17:17:27;;;;;;;9.43;3.70;;;23.90;44.10;;;;;;10416147;28;20734;-85
2023/05/31 17:22:29;;;;;;;3.40;3.10;;;23.80;47.10;;;;;;10408058;28;20218;-85
2023/05/31 17:27:33;;;;;;;3.37;3.03;;;23.70;47.80;;;;;;10446100;28;20257;-84
2023/05/31 17:32:35;;;;;;;3.20;2.90;;;23.60;45.90;;;;;;10446168;28;20211;-83
2023/05/31 17:37:37;;;;;;;3.50;2.90;;;23.60;46.90;;;;;;10429127;28;20246;-85
2023/05/31 17:42:40;;;;;;;3.63;3.30;;;23.60;48.60;;;;;;10395211;28;20334;-84
2023/05/31 17:47:43;;;;;;;4.50;3.00;;;23.50;47.60;;;;;;10426011;28;20588;-84
2023/05/31 17:52:45;;;;;;;6.03;3.00;;;23.50;47.30;;;;;;10434030;28;20215;-84
2023/05/31 17:57:49;;;;;;;3.00;2.70;;;23.40;47.10;;;;;;10452226;28;20261;-83
2023/05/31 18:02:51;;;;;;;4.10;3.27;;;23.40;48.00;;;;;;10410429;28;20310;-85
2023/05/31 18:07:53;;;;;;;3.23;2.47;;;23.30;49.20;;;;;;10422993;28;20218;-83
2023/05/31 18:12:56;;;;;;;4.40;4.00;;;23.20;47.80;;;;;;10426250;28;20199;-85
2023/05/31 18:17:58;;;;;;;4.47;3.20;;;23.10;47.90;;;;;;10436922;28;20226;-82
2023/05/31 18:23:01;;;;;;;5.60;3.70;;;23.10;49.40;;;;;;10412848;28;20213;-84
2023/05/31 18:28:04;;;;;;;5.77;3.57;;;22.90;50.10;;;;;;10392926;28;20230;-83
2023/05/31 18:33:06;;;;;;;3.27;2.97;;;22.90;51.50;;;;;;10393138;28;20282;-85
2023/05/31 18:38:08;;;;;;;6.73;3.60;;;22.70;51.10;;;;;;10377823;28;20769;-84
2023/05/31 18:43:12;;;;;;;3.10;2.80;;;22.70;54.10;;;;;;10458571;28;20229;-85
2023/05/31 18:48:14;;;;;;;3.27;3.00;;;22.60;56.40;;;;;;10418262;28;20222;-85
2023/05/31 18:53:16;;;;;;;7.80;3.60;;;22.50;55.10;;;;;;10390815;28;20203;-85
2023/05/31 18:58:20;;;;;;;3.50;3.20;;;22.40;53.10;;;;;;10390432;28;20223;-85
2023/05/31 19:03:22;;;;;;;3.30;3.00;;;22.30;54.70;;;;;;10421614;28;20242;-85
2023/05/31 19:08:24;;;;;;;3.90;3.57;;;22.30;54.10;;;;;;10405643;28;20690;-84
2023/05/31 19:13:28;;;;;;;3.40;3.20;;;22.20;53.80;;;;;;10411919;28;20278;-84
2023/05/31 19:18:30;;;;;;;3.30;3.10;;;22.10;54.30;;;;;;10404170;28;20585;-85
2023/05/31 19:23:32;;;;;;;4.27;3.87;;;22.00;54.80;;;;;;10431412;28;20229;-83
2023/05/31 19:28:35;;;;;;;3.87;3.50;;;21.90;55.00;;;;;;10433347;28;20215;-83
2023/05/31 19:33:37;;;;;;;4.30;3.10;;;21.90;55.50;;;;;;10379242;28;20202;-82
2023/05/31 19:38:39;;;;;;;5.40;4.40;;;21.80;55.70;;;;;;10395264;28;20246;-83
2023/05/31 19:43:43;;;;;;;7.00;3.27;;;21.70;55.50;;;;;;10413607;28;20579;-83
2023/05/31 19:48:45;;;;;;;5.23;3.50;;;21.60;55.60;;;;;;10418429;28;20540;-84
2023/05/31 19:53:47;;;;;;;3.83;2.93;;;21.50;55.80;;;;;;10448045;28;20214;-83
2023/05/31 19:58:51;;;;;;;5.00;3.63;;;21.40;56.20;;;;;;10436396;28;20222;-82
2023/05/31 20:03:53;;;;;;;5.87;4.03;;;21.30;56.10;;;;;;10432933;28;20242;-83
2023/05/31 20:08:55;;;;;;;3.97;3.30;;;21.20;56.00;;;;;;10420455;28;20321;-82
2023/05/31 20:13:59;;;;;;;8.30;3.90;;;21.10;56.40;;;;;;10433040;28;20213;-82
2023/05/31 20:19:01;;;;;;;4.90;3.87;;;21.10;57.20;;;;;;10397621;28;20557;-82
2023/05/31 20:24:03;;;;;;;4.40;3.73;;;20.90;57.30;;;;;;10421977;28;20210;-82
2023/05/31 20:29:07;;;;;;;4.43;3.80;;;20.80;57.90;;;;;;10417111;28;20242;-82
2023/05/31 20:34:09;;;;;;;4.17;3.77;;;20.70;58.30;;;;;;10447125;28;20617;-84
2023/05/31 20:39:11;;;;;;;6.10;4.00;;;20.70;58.70;;;;;;10420330;28;20215;-82
2023/05/31 20:44:24;;;;;;;5.73;3.73;;;20.60;59.00;;;;;;10430288;28;20265;-81
2023/05/31 20:49:26;;;;;;;4.40;4.00;;;20.60;59.30;;;;;;10422801;28;20222;-83
2023/05/31 20:54:30;;;;;;;6.67;3.97;;;20.50;59.40;;;;;;10414461;28;20297;-83
2023/05/31 20:59:35;;;;;;;6.53;5.00;;;20.40;59.60;;;;;;10430494;28;20215;-82
2023/05/31 21:04:37;;;;;;;6.80;4.93;;;20.40;59.50;;;;;;10442013;28;20285;-82
2023/05/31 21:09:39;;;;;;;7.40;5.23;;;20.30;60.50;;;;;;10452611;28;20214;-83
2023/05/31 21:14:42;;;;;;;4.73;4.20;;;20.30;60.40;;;;;;10453718;28;20228;-82
2023/05/31 21:19:45;;;;;;;4.93;4.50;;;20.20;60.30;;;;;;10472745;28;20254;-83
2023/05/31 21:24:47;;;;;;;5.30;4.90;;;20.10;60.10;;;;;;10461845;28;20895;-82
2023/05/31 21:29:51;;;;;;;4.57;4.17;;;20.10;60.40;;;;;;10434684;28;20224;-82
2023/05/31 21:34:53;;;;;;;5.50;4.40;;;19.90;60.60;;;;;;10472632;28;20230;-83
2023/05/31 21:39:55;;;;;;;4.83;4.37;;;19.90;60.80;;;;;;10449315;28;20686;-84
2023/05/31 21:44:59;;;;;;;4.10;3.70;;;19.80;61.40;;;;;;10415500;28;20690;-83
2023/05/31 21:50:01;;;;;;;5.43;4.73;;;19.80;61.50;;;;;;10472719;28;20214;-83
2023/05/31 21:55:05;;;;;;;6.07;4.17;;;19.70;61.50;;;;;;10406199;28;20198;-83
2023/05/31 22:00:10;;;;;;;5.40;4.13;;;19.60;61.40;;;;;;10430203;28;20253;-83
2023/05/31 22:05:13;;;;;;;4.23;3.80;;;19.50;62.40;;;;;;10429619;28;20213;-83
2023/05/31 22:10:15;;;;;;;4.27;3.80;;;19.50;62.60;;;;;;10422494;28;20292;-82
2023/05/31 22:15:18;;;;;;;5.17;4.30;;;19.50;62.20;;;;;;10434993;28;20205;-82
2023/05/31 22:20:21;;;;;;;5.43;4.47;;;19.40;62.70;;;;;;10474391;28;20226;-83
2023/05/31 22:25:23;;;;;;;4.27;3.80;;;19.30;62.60;;;;;;10427999;28;20206;-84
2023/05/31 22:30:27;;;;;;;3.70;3.40;;;19.30;62.30;;;;;;10445456;28;20249;-83
2023/05/31 22:35:30;;;;;;;4.93;4.50;;;19.20;64.10;;;;;;10445541;28;20245;-83
2023/05/31 22:40:32;;;;;;;4.57;3.70;;;19.20;63.00;;;;;;10426915;28;20254;-82
2023/05/31 22:45:35;;;;;;;4.20;3.80;;;19.20;63.70;;;;;;10421797;28;20289;-83
2023/05/31 22:50:38;;;;;;;4.90;3.70;;;19.10;64.10;;;;;;10432225;28;20201;-84
2023/05/31 22:55:41;;;;;;;4.77;4.20;;;19.10;64.10;;;;;;10427386;28;20205;-83
2023/05/31 23:00:44;;;;;;;4.93;3.53;;;19.00;63.60;;;;;;10412571;28;20217;-83
2023/05/31 23:05:47;;;;;;;5.00;4.30;;;19.00;64.30;;;;;;10458048;28;20190;-83
2023/05/31 23:10:49;;;;;;;5.33;4.33;;;18.90;65.00;;;;;;10425777;28;20213;-83
2023/05/31 23:15:53;;;;;;;5.00;3.80;;;18.90;64.30;;;;;;10396876;28;20256;-83
2023/05/31 23:20:56;;;;;;;5.17;3.90;;;18.90;65.10;;;;;;10468784;28;20209;-84
2023/05/31 23:25:58;;;;;;;7.77;4.03;;;18.80;64.50;;;;;;10433005;28;20217;-84
2023/05/31 23:31:02;;;;;;;5.40;3.73;;;18.80;65.90;;;;;;10460695;28;20187;-85
2023/05/31 23:36:04;;;;;;;6.10;4.20;;;18.70;65.10;;;;;;10385455;28;20227;-83
2023/05/31 23:41:06;;;;;;;4.80;4.30;;;18.70;65.50;;;;;;10403949;28;20218;-83
2023/05/31 23:46:10;;;;;;;4.30;3.90;;;18.60;66.50;;;;;;10437952;28;20246;-84
2023/05/31 23:51:13;;;;;;;5.43;4.07;;;18.60;66.40;;;;;;10427379;28;20706;-83
2023/05/31 23:56:15;;;;;;;3.93;3.63;;;18.60;66.60;;;;;;10469140;28;20225;-83
